sensor_id;sensor_type;location;lat;lon;timestamp;temperature;humidity
18392;DHT22;9322;50.932;5.318;2023-02-07T00:00:43;3.00;99.90
18392;DHT22;9322;50.932;5.318;2023-02-07T00:03:09;3.20;99.90
18392;DHT22;9322;50.932;5.318;2023-02-07T00:05:35;3.10;99.90
18392;DHT22;9322;50.932;5.318;2023-02-07T00:08:03;2.90;99.90
18392;DHT22;9322;50.932;5.318;2023-02-07T00:10:29;3.00;99.90
18392;DHT22;9322;50.932;5.318;2023-02-07T00:12:55;2.90;99.90
18392;DHT22;9322;50.932;5.318;2023-02-07T00:15:20;3.00;99.90
18392;DHT22;9322;50.932;5.318;2023-02-07T00:17:46;2.90;99.90
18392;DHT22;9322;50.932;5.318;2023-02-07T00:20:11;2.80;99.90
18392;DHT22;9322;50.932;5.318;2023-02-07T00:22:37;2.70;99.90
18392;DHT22;9322;50.932;5.318;2023-02-07T00:25:03;2.60;99.90
18392;DHT22;9322;50.932;5.318;2023-02-07T00:27:29;2.60;99.90
18392;DHT22;9322;50.932;5.318;2023-02-07T00:29:55;2.80;99.90
18392;DHT22;9322;50.932;5.318;2023-02-07T00:32:20;2.70;99.90
18392;DHT22;9322;50.932;5.318;2023-02-07T00:34:47;2.70;99.90
18392;DHT22;9322;50.932;5.318;2023-02-07T00:37:15;2.80;99.90
18392;DHT22;9322;50.932;5.318;2023-02-07T00:39:41;2.80;99.90
18392;DHT22;9322;50.932;5.318;2023-02-07T00:42:07;2.80;99.90
18392;DHT22;9322;50.932;5.318;2023-02-07T00:44:33;2.80;99.90
18392;DHT22;9322;50.932;5.318;2023-02-07T00:46:59;2.80;99.90
18392;DHT22;9322;50.932;5.318;2023-02-07T00:49:25;2.80;99.90
18392;DHT22;9322;50.932;5.318;2023-02-07T00:51:51;2.60;99.90
18392;DHT22;9322;50.932;5.318;2023-02-07T00:54:16;2.70;99.90
18392;DHT22;9322;50.932;5.318;2023-02-07T00:56:42;2.60;99.90
18392;DHT22;9322;50.932;5.318;2023-02-07T00:59:08;2.60;99.90
18392;DHT22;9322;50.932;5.318;2023-02-07T01:01:34;2.50;99.90
18392;DHT22;9322;50.932;5.318;2023-02-07T01:04:00;2.50;99.90
18392;DHT22;9322;50.932;5.318;2023-02-07T01:06:26;2.40;99.90
18392;DHT22;9322;50.932;5.318;2023-02-07T01:08:59;2.40;99.90
18392;DHT22;9322;50.932;5.318;2023-02-07T01:11:26;2.40;99.90
18392;DHT22;9322;50.932;5.318;2023-02-07T01:13:52;2.40;99.90
18392;DHT22;9322;50.932;5.318;2023-02-07T01:16:26;2.20;99.90
18392;DHT22;9322;50.932;5.318;2023-02-07T01:18:53;2.10;99.90
18392;DHT22;9322;50.932;5.318;2023-02-07T01:21:21;2.10;99.90
18392;DHT22;9322;50.932;5.318;2023-02-07T01:23:48;2.20;99.90
18392;DHT22;9322;50.932;5.318;2023-02-07T01:26:14;2.20;99.90
18392;DHT22;9322;50.932;5.318;2023-02-07T01:28:40;2.10;99.90
18392;DHT22;9322;50.932;5.318;2023-02-07T01:31:10;2.00;99.90
18392;DHT22;9322;50.932;5.318;2023-02-07T01:33:36;2.00;99.90
18392;DHT22;9322;50.932;5.318;2023-02-07T01:36:07;2.10;99.90
18392;DHT22;9322;50.932;5.318;2023-02-07T01:38:33;2.00;99.90
18392;DHT22;9322;50.932;5.318;2023-02-07T01:40:59;1.90;99.90
18392;DHT22;9322;50.932;5.318;2023-02-07T01:43:25;1.80;99.90
18392;DHT22;9322;50.932;5.318;2023-02-07T01:45:51;1.70;99.90
18392;DHT22;9322;50.932;5.318;2023-02-07T01:48:24;1.80;99.90
18392;DHT22;9322;50.932;5.318;2023-02-07T01:50:52;1.80;99.90
18392;DHT22;9322;50.932;5.318;2023-02-07T01:53:23;1.70;99.90
18392;DHT22;9322;50.932;5.318;2023-02-07T01:55:55;1.60;99.90
18392;DHT22;9322;50.932;5.318;2023-02-07T01:58:23;1.40;99.90
18392;DHT22;9322;50.932;5.318;2023-02-07T02:00:50;1.20;99.90
18392;DHT22;9322;50.932;5.318;2023-02-07T02:03:16;1.10;99.90
18392;DHT22;9322;50.932;5.318;2023-02-07T02:05:43;1.00;99.90
18392;DHT22;9322;50.932;5.318;2023-02-07T02:08:10;0.90;99.90
18392;DHT22;9322;50.932;5.318;2023-02-07T02:11:12;1.00;99.90
18392;DHT22;9322;50.932;5.318;2023-02-07T02:20:34;0.90;99.90
18392;DHT22;9322;50.932;5.318;2023-02-07T02:24:56;0.90;99.90
18392;DHT22;9322;50.932;5.318;2023-02-07T02:41:56;0.10;99.90
18392;DHT22;9322;50.932;5.318;2023-02-07T02:44:46;0.00;99.90
18392;DHT22;9322;50.932;5.318;2023-02-07T02:47:14;0.10;99.90
18392;DHT22;9322;50.932;5.318;2023-02-07T02:49:41;0.20;99.90
18392;DHT22;9322;50.932;5.318;2023-02-07T02:52:08;0.20;99.90
18392;DHT22;9322;50.932;5.318;2023-02-07T02:54:39;0.20;99.90
18392;DHT22;9322;50.932;5.318;2023-02-07T03:05:19;0.30;99.90
18392;DHT22;9322;50.932;5.318;2023-02-07T03:10:31;0.20;99.90
18392;DHT22;9322;50.932;5.318;2023-02-07T03:19:06;0.20;99.90
18392;DHT22;9322;50.932;5.318;2023-02-07T03:21:37;0.10;99.90
18392;DHT22;9322;50.932;5.318;2023-02-07T03:24:11;0.10;99.90
18392;DHT22;9322;50.932;5.318;2023-02-07T03:26:39;0.10;99.90
18392;DHT22;9322;50.932;5.318;2023-02-07T03:29:08;0.10;99.90
18392;DHT22;9322;50.932;5.318;2023-02-07T03:31:38;0.00;99.90
18392;DHT22;9322;50.932;5.318;2023-02-07T03:34:14;0.10;99.90
18392;DHT22;9322;50.932;5.318;2023-02-07T03:37:24;0.10;99.90
18392;DHT22;9322;50.932;5.318;2023-02-07T03:39:50;0.10;99.90
18392;DHT22;9322;50.932;5.318;2023-02-07T03:42:25;0.30;99.90
18392;DHT22;9322;50.932;5.318;2023-02-07T03:44:53;0.30;99.90
18392;DHT22;9322;50.932;5.318;2023-02-07T03:47:20;0.30;99.90
18392;DHT22;9322;50.932;5.318;2023-02-07T03:49:45;0.40;99.90
18392;DHT22;9322;50.932;5.318;2023-02-07T03:52:11;0.30;99.90
18392;DHT22;9322;50.932;5.318;2023-02-07T03:54:37;0.20;99.90
18392;DHT22;9322;50.932;5.318;2023-02-07T03:57:03;0.30;99.90
18392;DHT22;9322;50.932;5.318;2023-02-07T03:59:29;0.30;99.90
18392;DHT22;9322;50.932;5.318;2023-02-07T04:01:54;0.30;99.90
18392;DHT22;9322;50.932;5.318;2023-02-07T04:04:20;0.30;99.90
18392;DHT22;9322;50.932;5.318;2023-02-07T04:06:46;0.20;99.90
18392;DHT22;9322;50.932;5.318;2023-02-07T04:09:12;0.20;99.90
18392;DHT22;9322;50.932;5.318;2023-02-07T04:11:37;0.40;99.90
18392;DHT22;9322;50.932;5.318;2023-02-07T04:14:03;0.40;99.90
18392;DHT22;9322;50.932;5.318;2023-02-07T04:16:28;0.20;99.90
18392;DHT22;9322;50.932;5.318;2023-02-07T04:18:54;0.30;99.90
18392;DHT22;9322;50.932;5.318;2023-02-07T04:21:20;0.30;99.90
18392;DHT22;9322;50.932;5.318;2023-02-07T04:23:45;0.20;99.90
18392;DHT22;9322;50.932;5.318;2023-02-07T04:26:11;0.10;99.90
18392;DHT22;9322;50.932;5.318;2023-02-07T04:28:37;0.00;99.90
18392;DHT22;9322;50.932;5.318;2023-02-07T04:31:03;0.10;99.90
18392;DHT22;9322;50.932;5.318;2023-02-07T04:33:28;0.10;99.90
18392;DHT22;9322;50.932;5.318;2023-02-07T04:35:59;0.10;99.90
18392;DHT22;9322;50.932;5.318;2023-02-07T04:38:26;0.00;99.90
18392;DHT22;9322;50.932;5.318;2023-02-07T04:41:00;0.00;99.90
18392;DHT22;9322;50.932;5.318;2023-02-07T04:43:27;0.00;99.90
18392;DHT22;9322;50.932;5.318;2023-02-07T04:45:53;-0.10;99.90
18392;DHT22;9322;50.932;5.318;2023-02-07T04:48:19;-0.10;99.90
18392;DHT22;9322;50.932;5.318;2023-02-07T04:50:45;0.00;99.90
18392;DHT22;9322;50.932;5.318;2023-02-07T04:53:10;0.00;99.90
18392;DHT22;9322;50.932;5.318;2023-02-07T04:55:36;0.00;99.90
18392;DHT22;9322;50.932;5.318;2023-02-07T04:58:03;0.00;99.90
18392;DHT22;9322;50.932;5.318;2023-02-07T05:00:29;-0.10;99.90
18392;DHT22;9322;50.932;5.318;2023-02-07T05:02:54;-0.10;99.90
18392;DHT22;9322;50.932;5.318;2023-02-07T05:05:20;-0.10;99.90
18392;DHT22;9322;50.932;5.318;2023-02-07T05:07:46;0.00;99.90
18392;DHT22;9322;50.932;5.318;2023-02-07T05:10:11;-0.10;99.90
18392;DHT22;9322;50.932;5.318;2023-02-07T05:12:37;-0.20;99.90
18392;DHT22;9322;50.932;5.318;2023-02-07T05:15:03;-0.20;99.90
18392;DHT22;9322;50.932;5.318;2023-02-07T05:17:29;-0.30;99.90
18392;DHT22;9322;50.932;5.318;2023-02-07T05:19:59;-0.30;99.90
18392;DHT22;9322;50.932;5.318;2023-02-07T05:22:26;-0.30;99.90
18392;DHT22;9322;50.932;5.318;2023-02-07T05:24:51;-0.30;99.90
18392;DHT22;9322;50.932;5.318;2023-02-07T05:27:17;-0.40;99.90
18392;DHT22;9322;50.932;5.318;2023-02-07T05:29:43;-0.50;99.90
18392;DHT22;9322;50.932;5.318;2023-02-07T05:32:11;-0.50;99.90
18392;DHT22;9322;50.932;5.318;2023-02-07T05:34:56;-0.60;99.90
18392;DHT22;9322;50.932;5.318;2023-02-07T05:37:22;-0.50;99.90
18392;DHT22;9322;50.932;5.318;2023-02-07T05:39:47;-0.50;99.90
18392;DHT22;9322;50.932;5.318;2023-02-07T05:42:13;-0.40;99.90
18392;DHT22;9322;50.932;5.318;2023-02-07T05:44:39;-0.50;99.90
18392;DHT22;9322;50.932;5.318;2023-02-07T05:47:05;-0.60;99.90
18392;DHT22;9322;50.932;5.318;2023-02-07T05:49:30;-0.60;99.90
18392;DHT22;9322;50.932;5.318;2023-02-07T05:51:56;-0.50;99.90
18392;DHT22;9322;50.932;5.318;2023-02-07T05:54:22;-0.60;99.90
18392;DHT22;9322;50.932;5.318;2023-02-07T05:56:48;-0.60;99.90
18392;DHT22;9322;50.932;5.318;2023-02-07T05:59:13;-0.60;99.90
18392;DHT22;9322;50.932;5.318;2023-02-07T06:01:39;-0.70;99.90
18392;DHT22;9322;50.932;5.318;2023-02-07T06:04:05;-0.70;99.90
18392;DHT22;9322;50.932;5.318;2023-02-07T06:06:31;-0.60;99.90
18392;DHT22;9322;50.932;5.318;2023-02-07T06:08:56;-0.60;99.90
18392;DHT22;9322;50.932;5.318;2023-02-07T06:11:22;-0.70;99.90
18392;DHT22;9322;50.932;5.318;2023-02-07T06:13:47;-0.50;99.90
18392;DHT22;9322;50.932;5.318;2023-02-07T06:16:13;-0.60;99.90
18392;DHT22;9322;50.932;5.318;2023-02-07T06:18:39;-0.60;99.90
18392;DHT22;9322;50.932;5.318;2023-02-07T06:21:04;-0.60;99.90
18392;DHT22;9322;50.932;5.318;2023-02-07T06:23:30;-0.60;99.90
18392;DHT22;9322;50.932;5.318;2023-02-07T06:25:56;-0.70;99.90
18392;DHT22;9322;50.932;5.318;2023-02-07T06:28:22;-0.70;99.90
18392;DHT22;9322;50.932;5.318;2023-02-07T06:30:52;-0.60;99.90
18392;DHT22;9322;50.932;5.318;2023-02-07T06:33:18;-0.70;99.90
18392;DHT22;9322;50.932;5.318;2023-02-07T06:35:43;-0.80;99.90
18392;DHT22;9322;50.932;5.318;2023-02-07T06:38:16;-0.80;99.90
18392;DHT22;9322;50.932;5.318;2023-02-07T06:40:42;-0.80;99.90
18392;DHT22;9322;50.932;5.318;2023-02-07T06:43:08;-0.70;99.90
18392;DHT22;9322;50.932;5.318;2023-02-07T06:45:34;-0.70;99.90
18392;DHT22;9322;50.932;5.318;2023-02-07T06:47:59;-0.80;99.90
18392;DHT22;9322;50.932;5.318;2023-02-07T06:50:25;-0.80;99.90
18392;DHT22;9322;50.932;5.318;2023-02-07T06:52:51;-0.80;99.90
18392;DHT22;9322;50.932;5.318;2023-02-07T06:55:16;-0.70;99.90
18392;DHT22;9322;50.932;5.318;2023-02-07T06:57:42;-0.70;99.90
18392;DHT22;9322;50.932;5.318;2023-02-07T07:00:09;-0.70;99.90
18392;DHT22;9322;50.932;5.318;2023-02-07T07:02:34;-0.70;99.90
18392;DHT22;9322;50.932;5.318;2023-02-07T07:05:01;-0.70;99.90
18392;DHT22;9322;50.932;5.318;2023-02-07T07:07:26;-0.60;99.90
18392;DHT22;9322;50.932;5.318;2023-02-07T07:09:52;-0.50;99.90
18392;DHT22;9322;50.932;5.318;2023-02-07T07:12:18;-0.50;99.90
18392;DHT22;9322;50.932;5.318;2023-02-07T07:14:44;-0.50;99.90
18392;DHT22;9322;50.932;5.318;2023-02-07T07:17:09;-0.50;99.90
18392;DHT22;9322;50.932;5.318;2023-02-07T07:19:35;-0.50;99.90
18392;DHT22;9322;50.932;5.318;2023-02-07T07:22:01;-0.60;99.90
18392;DHT22;9322;50.932;5.318;2023-02-07T07:24:26;-0.60;99.90
18392;DHT22;9322;50.932;5.318;2023-02-07T07:26:52;-0.50;99.90
18392;DHT22;9322;50.932;5.318;2023-02-07T07:29:18;-0.50;99.90
18392;DHT22;9322;50.932;5.318;2023-02-07T07:31:44;-0.60;99.90
18392;DHT22;9322;50.932;5.318;2023-02-07T07:34:10;-0.50;99.90
18392;DHT22;9322;50.932;5.318;2023-02-07T07:36:36;-0.50;99.90
18392;DHT22;9322;50.932;5.318;2023-02-07T07:39:02;-0.60;99.90
18392;DHT22;9322;50.932;5.318;2023-02-07T07:41:28;-0.50;99.90
18392;DHT22;9322;50.932;5.318;2023-02-07T07:43:54;-0.40;99.90
18392;DHT22;9322;50.932;5.318;2023-02-07T07:46:20;-0.10;99.90
18392;DHT22;9322;50.932;5.318;2023-02-07T07:48:46;0.60;99.90
18392;DHT22;9322;50.932;5.318;2023-02-07T07:51:12;1.70;99.90
18392;DHT22;9322;50.932;5.318;2023-02-07T07:53:38;2.80;99.90
18392;DHT22;9322;50.932;5.318;2023-02-07T07:56:04;3.40;99.90
18392;DHT22;9322;50.932;5.318;2023-02-07T07:58:30;3.30;1.40
18392;DHT22;9322;50.932;5.318;2023-02-07T08:00:56;3.50;1.40
18392;DHT22;9322;50.932;5.318;2023-02-07T08:03:22;4.10;1.40
18392;DHT22;9322;50.932;5.318;2023-02-07T08:05:49;4.50;99.90
18392;DHT22;9322;50.932;5.318;2023-02-07T08:08:15;4.70;1.40
18392;DHT22;9322;50.932;5.318;2023-02-07T08:10:41;5.20;1.40
18392;DHT22;9322;50.932;5.318;2023-02-07T08:13:07;5.60;1.40
18392;DHT22;9322;50.932;5.318;2023-02-07T08:15:32;6.20;1.40
18392;DHT22;9322;50.932;5.318;2023-02-07T08:17:58;6.40;1.40
18392;DHT22;9322;50.932;5.318;2023-02-07T08:20:24;6.90;1.40
18392;DHT22;9322;50.932;5.318;2023-02-07T08:22:50;7.70;1.40
18392;DHT22;9322;50.932;5.318;2023-02-07T08:25:16;8.20;1.40
18392;DHT22;9322;50.932;5.318;2023-02-07T08:27:41;7.90;1.40
18392;DHT22;9322;50.932;5.318;2023-02-07T08:30:11;7.50;1.40
18392;DHT22;9322;50.932;5.318;2023-02-07T08:32:37;7.30;1.40
18392;DHT22;9322;50.932;5.318;2023-02-07T08:35:04;7.20;1.40
18392;DHT22;9322;50.932;5.318;2023-02-07T08:37:30;8.40;1.40
18392;DHT22;9322;50.932;5.318;2023-02-07T08:39:56;9.10;1.40
18392;DHT22;9322;50.932;5.318;2023-02-07T08:42:22;10.30;1.40
18392;DHT22;9322;50.932;5.318;2023-02-07T08:44:49;11.00;1.40
18392;DHT22;9322;50.932;5.318;2023-02-07T08:47:15;11.50;1.40
18392;DHT22;9322;50.932;5.318;2023-02-07T08:49:42;11.50;1.40
18392;DHT22;9322;50.932;5.318;2023-02-07T08:52:08;11.70;1.40
18392;DHT22;9322;50.932;5.318;2023-02-07T08:54:35;11.70;1.40
18392;DHT22;9322;50.932;5.318;2023-02-07T08:57:01;12.30;1.40
18392;DHT22;9322;50.932;5.318;2023-02-07T08:59:27;12.50;1.40
18392;DHT22;9322;50.932;5.318;2023-02-07T09:01:52;12.60;1.40
18392;DHT22;9322;50.932;5.318;2023-02-07T09:04:18;12.80;1.40
18392;DHT22;9322;50.932;5.318;2023-02-07T09:06:44;12.50;1.40
18392;DHT22;9322;50.932;5.318;2023-02-07T09:09:09;11.90;1.40
18392;DHT22;9322;50.932;5.318;2023-02-07T09:11:35;12.00;1.40
18392;DHT22;9322;50.932;5.318;2023-02-07T09:14:02;11.20;1.40
18392;DHT22;9322;50.932;5.318;2023-02-07T09:16:28;12.50;1.40
18392;DHT22;9322;50.932;5.318;2023-02-07T09:18:53;13.00;1.40
18392;DHT22;9322;50.932;5.318;2023-02-07T09:21:19;13.80;1.40
18392;DHT22;9322;50.932;5.318;2023-02-07T09:23:45;14.20;1.40
18392;DHT22;9322;50.932;5.318;2023-02-07T09:26:18;14.60;1.40
18392;DHT22;9322;50.932;5.318;2023-02-07T09:28:44;14.90;1.40
18392;DHT22;9322;50.932;5.318;2023-02-07T09:31:12;14.90;1.40
18392;DHT22;9322;50.932;5.318;2023-02-07T09:33:39;14.40;1.40
18392;DHT22;9322;50.932;5.318;2023-02-07T09:36:05;14.70;1.40
18392;DHT22;9322;50.932;5.318;2023-02-07T09:38:31;14.30;1.40
18392;DHT22;9322;50.932;5.318;2023-02-07T09:40:57;14.20;1.40
18392;DHT22;9322;50.932;5.318;2023-02-07T09:46:32;13.90;1.40
18392;DHT22;9322;50.932;5.318;2023-02-07T09:51:38;14.80;1.40
18392;DHT22;9322;50.932;5.318;2023-02-07T09:54:22;14.80;1.40
18392;DHT22;9322;50.932;5.318;2023-02-07T09:56:51;15.50;1.40
18392;DHT22;9322;50.932;5.318;2023-02-07T09:59:59;15.40;1.40
18392;DHT22;9322;50.932;5.318;2023-02-07T10:02:41;15.90;1.40
18392;DHT22;9322;50.932;5.318;2023-02-07T10:05:44;16.10;1.40
18392;DHT22;9322;50.932;5.318;2023-02-07T10:08:16;15.60;1.40
18392;DHT22;9322;50.932;5.318;2023-02-07T10:11:29;14.80;1.40
18392;DHT22;9322;50.932;5.318;2023-02-07T10:16:48;14.60;1.40
18392;DHT22;9322;50.932;5.318;2023-02-07T10:30:50;14.10;1.40
18392;DHT22;9322;50.932;5.318;2023-02-07T10:33:19;14.70;1.40
18392;DHT22;9322;50.932;5.318;2023-02-07T10:35:46;14.60;1.40
18392;DHT22;9322;50.932;5.318;2023-02-07T10:38:26;14.20;1.40
18392;DHT22;9322;50.932;5.318;2023-02-07T10:43:47;14.90;1.40
18392;DHT22;9322;50.932;5.318;2023-02-07T10:46:17;15.40;1.40
18392;DHT22;9322;50.932;5.318;2023-02-07T10:48:45;15.30;1.40
18392;DHT22;9322;50.932;5.318;2023-02-07T10:53:48;15.20;1.40
18392;DHT22;9322;50.932;5.318;2023-02-07T10:56:19;15.30;1.40
18392;DHT22;9322;50.932;5.318;2023-02-07T10:58:46;16.00;1.40
18392;DHT22;9322;50.932;5.318;2023-02-07T11:01:31;15.80;1.40
18392;DHT22;9322;50.932;5.318;2023-02-07T11:03:57;16.10;1.40
18392;DHT22;9322;50.932;5.318;2023-02-07T11:06:31;15.40;1.40
18392;DHT22;9322;50.932;5.318;2023-02-07T11:09:20;16.20;1.40
18392;DHT22;9322;50.932;5.318;2023-02-07T11:11:48;16.20;1.40
18392;DHT22;9322;50.932;5.318;2023-02-07T11:14:17;16.10;1.40
18392;DHT22;9322;50.932;5.318;2023-02-07T11:16:46;16.20;1.40
18392;DHT22;9322;50.932;5.318;2023-02-07T11:19:18;16.70;1.40
18392;DHT22;9322;50.932;5.318;2023-02-07T11:21:46;16.50;1.40
18392;DHT22;9322;50.932;5.318;2023-02-07T11:24:26;16.40;1.40
18392;DHT22;9322;50.932;5.318;2023-02-07T11:29:28;16.30;1.40
18392;DHT22;9322;50.932;5.318;2023-02-07T11:31:57;16.80;1.40
18392;DHT22;9322;50.932;5.318;2023-02-07T11:34:46;16.90;1.40
18392;DHT22;9322;50.932;5.318;2023-02-07T11:42:40;16.60;1.40
18392;DHT22;9322;50.932;5.318;2023-02-07T11:45:16;16.30;1.40
18392;DHT22;9322;50.932;5.318;2023-02-07T11:47:45;16.40;1.40
18392;DHT22;9322;50.932;5.318;2023-02-07T11:50:35;17.50;1.40
18392;DHT22;9322;50.932;5.318;2023-02-07T11:53:04;17.90;1.40
18392;DHT22;9322;50.932;5.318;2023-02-07T11:55:37;18.40;1.40
18392;DHT22;9322;50.932;5.318;2023-02-07T12:01:16;18.10;1.40
18392;DHT22;9322;50.932;5.318;2023-02-07T12:04:01;17.70;1.40
18392;DHT22;9322;50.932;5.318;2023-02-07T12:09:11;18.50;1.40
18392;DHT22;9322;50.932;5.318;2023-02-07T12:11:41;18.70;1.40
18392;DHT22;9322;50.932;5.318;2023-02-07T12:14:23;18.30;1.40
18392;DHT22;9322;50.932;5.318;2023-02-07T12:16:54;17.70;1.40
18392;DHT22;9322;50.932;5.318;2023-02-07T12:19:27;16.70;1.40
18392;DHT22;9322;50.932;5.318;2023-02-07T12:27:18;15.90;1.40
18392;DHT22;9322;50.932;5.318;2023-02-07T12:30:10;15.90;1.40
18392;DHT22;9322;50.932;5.318;2023-02-07T12:32:53;15.40;1.40
18392;DHT22;9322;50.932;5.318;2023-02-07T12:40:43;16.20;1.40
18392;DHT22;9322;50.932;5.318;2023-02-07T12:43:34;16.50;1.40
18392;DHT22;9322;50.932;5.318;2023-02-07T12:46:20;16.10;1.40
18392;DHT22;9322;50.932;5.318;2023-02-07T12:56:51;14.30;1.40
18392;DHT22;9322;50.932;5.318;2023-02-07T13:02:23;11.10;1.40
18392;DHT22;9322;50.932;5.318;2023-02-07T13:05:00;10.00;1.40
18392;DHT22;9322;50.932;5.318;2023-02-07T13:20:42;8.20;1.40
18392;DHT22;9322;50.932;5.318;2023-02-07T13:23:25;8.10;1.40
18392;DHT22;9322;50.932;5.318;2023-02-07T13:25:56;8.20;1.40
18392;DHT22;9322;50.932;5.318;2023-02-07T13:28:26;8.20;1.40
18392;DHT22;9322;50.932;5.318;2023-02-07T13:30:55;8.20;1.40
18392;DHT22;9322;50.932;5.318;2023-02-07T13:36:20;8.10;1.40
18392;DHT22;9322;50.932;5.318;2023-02-07T13:39:13;8.10;1.40
18392;DHT22;9322;50.932;5.318;2023-02-07T13:53:22;8.00;1.40
18392;DHT22;9322;50.932;5.318;2023-02-07T13:55:49;8.00;1.40
18392;DHT22;9322;50.932;5.318;2023-02-07T14:01:29;7.70;1.40
18392;DHT22;9322;50.932;5.318;2023-02-07T14:04:07;7.70;1.40
18392;DHT22;9322;50.932;5.318;2023-02-07T14:06:38;7.60;1.40
18392;DHT22;9322;50.932;5.318;2023-02-07T14:11:41;7.60;1.40
18392;DHT22;9322;50.932;5.318;2023-02-07T14:14:33;7.50;1.40
18392;DHT22;9322;50.932;5.318;2023-02-07T14:17:13;7.80;1.40
18392;DHT22;9322;50.932;5.318;2023-02-07T14:25:19;7.50;1.40
18392;DHT22;9322;50.932;5.318;2023-02-07T14:30:21;7.50;1.40
18392;DHT22;9322;50.932;5.318;2023-02-07T14:36:01;7.30;1.40
18392;DHT22;9322;50.932;5.318;2023-02-07T14:41:13;7.30;1.40
18392;DHT22;9322;50.932;5.318;2023-02-07T14:44:03;7.20;1.40
18392;DHT22;9322;50.932;5.318;2023-02-07T14:46:31;7.10;1.40
18392;DHT22;9322;50.932;5.318;2023-02-07T14:49:02;7.20;1.40
18392;DHT22;9322;50.932;5.318;2023-02-07T14:54:00;7.20;1.40
18392;DHT22;9322;50.932;5.318;2023-02-07T14:59:27;7.10;1.40
18392;DHT22;9322;50.932;5.318;2023-02-07T15:01:54;6.90;1.40
18392;DHT22;9322;50.932;5.318;2023-02-07T15:04:20;7.00;1.40
18392;DHT22;9322;50.932;5.318;2023-02-07T15:06:46;7.00;1.40
18392;DHT22;9322;50.932;5.318;2023-02-07T15:09:25;7.10;1.40
18392;DHT22;9322;50.932;5.318;2023-02-07T15:11:52;7.10;1.40
18392;DHT22;9322;50.932;5.318;2023-02-07T15:14:29;7.10;1.40
18392;DHT22;9322;50.932;5.318;2023-02-07T15:16:55;7.00;1.40
18392;DHT22;9322;50.932;5.318;2023-02-07T15:19:39;6.80;1.40
18392;DHT22;9322;50.932;5.318;2023-02-07T15:22:06;7.00;1.40
18392;DHT22;9322;50.932;5.318;2023-02-07T15:24:37;6.90;1.40
18392;DHT22;9322;50.932;5.318;2023-02-07T15:27:06;6.80;1.40
18392;DHT22;9322;50.932;5.318;2023-02-07T15:29:35;6.80;1.40
18392;DHT22;9322;50.932;5.318;2023-02-07T15:32:27;6.80;1.40
18392;DHT22;9322;50.932;5.318;2023-02-07T15:35:05;6.80;1.40
18392;DHT22;9322;50.932;5.318;2023-02-07T15:37:35;6.70;1.40
18392;DHT22;9322;50.932;5.318;2023-02-07T15:40:02;6.60;1.40
18392;DHT22;9322;50.932;5.318;2023-02-07T15:42:28;6.70;1.40
18392;DHT22;9322;50.932;5.318;2023-02-07T15:44:56;6.70;1.40
18392;DHT22;9322;50.932;5.318;2023-02-07T15:52:47;6.60;1.40
18392;DHT22;9322;50.932;5.318;2023-02-07T15:55:33;6.40;1.40
18392;DHT22;9322;50.932;5.318;2023-02-07T15:58:01;6.30;1.40
18392;DHT22;9322;50.932;5.318;2023-02-07T16:00:38;6.40;1.40
18392;DHT22;9322;50.932;5.318;2023-02-07T16:03:18;6.30;1.40
18392;DHT22;9322;50.932;5.318;2023-02-07T16:05:45;6.30;1.40
18392;DHT22;9322;50.932;5.318;2023-02-07T16:08:31;6.30;1.40
18392;DHT22;9322;50.932;5.318;2023-02-07T16:16:24;5.90;1.40
18392;DHT22;9322;50.932;5.318;2023-02-07T16:18:50;6.00;1.40
18392;DHT22;9322;50.932;5.318;2023-02-07T16:23:42;5.90;1.40
18392;DHT22;9322;50.932;5.318;2023-02-07T16:26:09;5.90;1.40
18392;DHT22;9322;50.932;5.318;2023-02-07T16:28:35;5.80;1.40
18392;DHT22;9322;50.932;5.318;2023-02-07T16:31:01;5.70;1.40
18392;DHT22;9322;50.932;5.318;2023-02-07T16:33:26;5.70;1.40
18392;DHT22;9322;50.932;5.318;2023-02-07T16:35:52;5.60;1.40
18392;DHT22;9322;50.932;5.318;2023-02-07T16:38:18;5.60;1.40
18392;DHT22;9322;50.932;5.318;2023-02-07T16:40:43;5.60;1.40
18392;DHT22;9322;50.932;5.318;2023-02-07T16:43:33;5.40;1.40
18392;DHT22;9322;50.932;5.318;2023-02-07T16:46:00;5.40;1.40
18392;DHT22;9322;50.932;5.318;2023-02-07T16:48:26;5.40;1.40
18392;DHT22;9322;50.932;5.318;2023-02-07T16:50:51;5.30;1.40
18392;DHT22;9322;50.932;5.318;2023-02-07T16:53:17;5.30;1.40
18392;DHT22;9322;50.932;5.318;2023-02-07T16:55:43;5.20;1.40
18392;DHT22;9322;50.932;5.318;2023-02-07T16:58:24;5.10;1.40
18392;DHT22;9322;50.932;5.318;2023-02-07T17:00:51;5.10;1.40
18392;DHT22;9322;50.932;5.318;2023-02-07T17:03:17;5.00;1.40
18392;DHT22;9322;50.932;5.318;2023-02-07T17:05:43;4.90;1.40
18392;DHT22;9322;50.932;5.318;2023-02-07T17:08:13;4.90;1.40
18392;DHT22;9322;50.932;5.318;2023-02-07T17:10:51;4.90;1.40
18392;DHT22;9322;50.932;5.318;2023-02-07T17:13:18;4.90;1.40
18392;DHT22;9322;50.932;5.318;2023-02-07T17:15:44;4.80;1.40
18392;DHT22;9322;50.932;5.318;2023-02-07T17:18:11;4.80;1.40
18392;DHT22;9322;50.932;5.318;2023-02-07T17:20:38;4.70;1.40
18392;DHT22;9322;50.932;5.318;2023-02-07T17:23:03;4.60;1.40
18392;DHT22;9322;50.932;5.318;2023-02-07T17:25:29;4.60;1.40
18392;DHT22;9322;50.932;5.318;2023-02-07T17:27:56;4.50;1.40
18392;DHT22;9322;50.932;5.318;2023-02-07T17:30:29;4.40;1.40
18392;DHT22;9322;50.932;5.318;2023-02-07T17:32:54;4.30;1.40
18392;DHT22;9322;50.932;5.318;2023-02-07T17:35:21;4.30;1.40
18392;DHT22;9322;50.932;5.318;2023-02-07T17:37:47;4.40;1.40
18392;DHT22;9322;50.932;5.318;2023-02-07T17:40:25;4.20;1.40
18392;DHT22;9322;50.932;5.318;2023-02-07T17:42:51;4.30;1.40
18392;DHT22;9322;50.932;5.318;2023-02-07T17:45:17;4.20;1.40
18392;DHT22;9322;50.932;5.318;2023-02-07T17:47:43;4.20;1.40
18392;DHT22;9322;50.932;5.318;2023-02-07T17:50:19;4.20;1.40
18392;DHT22;9322;50.932;5.318;2023-02-07T17:52:45;4.20;1.40
18392;DHT22;9322;50.932;5.318;2023-02-07T17:55:12;3.90;1.40
18392;DHT22;9322;50.932;5.318;2023-02-07T17:57:38;3.80;1.40
18392;DHT22;9322;50.932;5.318;2023-02-07T18:00:16;3.90;1.40
18392;DHT22;9322;50.932;5.318;2023-02-07T18:02:42;3.90;1.40
18392;DHT22;9322;50.932;5.318;2023-02-07T18:05:08;3.80;1.40
18392;DHT22;9322;50.932;5.318;2023-02-07T18:07:34;3.80;1.40
18392;DHT22;9322;50.932;5.318;2023-02-07T18:10:00;3.80;1.40
18392;DHT22;9322;50.932;5.318;2023-02-07T18:12:25;4.00;1.40
18392;DHT22;9322;50.932;5.318;2023-02-07T18:14:51;3.90;1.40
18392;DHT22;9322;50.932;5.318;2023-02-07T18:17:17;3.90;1.40
18392;DHT22;9322;50.932;5.318;2023-02-07T18:19:43;3.80;1.40
18392;DHT22;9322;50.932;5.318;2023-02-07T18:22:09;3.80;1.40
18392;DHT22;9322;50.932;5.318;2023-02-07T18:24:36;3.70;1.40
18392;DHT22;9322;50.932;5.318;2023-02-07T18:27:02;3.80;1.40
18392;DHT22;9322;50.932;5.318;2023-02-07T18:29:27;3.70;1.40
18392;DHT22;9322;50.932;5.318;2023-02-07T18:31:53;3.50;1.40
18392;DHT22;9322;50.932;5.318;2023-02-07T18:34:19;3.50;1.40
18392;DHT22;9322;50.932;5.318;2023-02-07T18:36:44;3.40;1.40
18392;DHT22;9322;50.932;5.318;2023-02-07T18:39:11;3.30;1.40
18392;DHT22;9322;50.932;5.318;2023-02-07T18:41:37;3.10;1.40
18392;DHT22;9322;50.932;5.318;2023-02-07T18:44:02;3.00;1.40
18392;DHT22;9322;50.932;5.318;2023-02-07T18:46:29;2.80;1.40
18392;DHT22;9322;50.932;5.318;2023-02-07T18:48:56;2.70;1.40
18392;DHT22;9322;50.932;5.318;2023-02-07T18:51:23;2.50;1.40
18392;DHT22;9322;50.932;5.318;2023-02-07T18:53:49;2.40;1.40
18392;DHT22;9322;50.932;5.318;2023-02-07T18:56:17;2.30;1.40
18392;DHT22;9322;50.932;5.318;2023-02-07T18:58:45;2.20;1.40
18392;DHT22;9322;50.932;5.318;2023-02-07T19:01:12;2.10;1.40
18392;DHT22;9322;50.932;5.318;2023-02-07T19:03:42;2.00;1.40